Time;durP1;ratioP1;P1;durP2;ratioP2;P2;SDS_P1;SDS_P2;PMS_P1;PMS_P2;Temp;Humidity;BMP_temperature;BMP_pressure;BME280_temperature;BME280_humidity;BME280_pressure;Samples;Min_cycle;Max_cycle;Signal;HPM_P1;HPM_P2
2022/12/31 00:01:04;;;;;;;;;;;4.40;99.90;;;;;;5051253;28;20508;-77
2022/12/31 00:03:30;;;;;;;296.92;56.47;;;4.40;99.90;;;;;;5049506;28;19912;-77
2022/12/31 00:05:56;;;;;;;;;;;4.40;99.90;;;;;;5050201;28;20429;-75
2022/12/31 00:08:22;;;;;;;247.55;55.22;;;4.40;99.90;;;;;;5053300;28;19905;-76
2022/12/31 00:10:48;;;;;;;;;;;4.40;99.90;;;;;;5056103;28;20100;-76
2022/12/31 00:13:13;;;;;;;197.05;48.90;;;4.40;99.90;;;;;;5053709;28;20750;-77
2022/12/31 00:15:39;;;;;;;;;;;4.40;99.90;;;;;;5051958;28;20056;-76
2022/12/31 00:18:06;;;;;;;233.20;52.70;;;4.40;99.90;;;;;;5051682;28;19915;-75
2022/12/31 00:20:32;;;;;;;216.38;47.40;;;4.40;99.90;;;;;;5053733;28;20021;-75
2022/12/31 00:22:58;;;;;;;;;;;4.40;99.90;;;;;;5053994;28;20025;-75
2022/12/31 00:25:24;;;;;;;192.38;45.70;;;4.40;99.90;;;;;;5051653;28;19928;-76
2022/12/31 00:27:49;;;;;;;;;;;4.40;99.90;;;;;;5052072;28;20025;-76
2022/12/31 00:30:15;;;;;;;202.43;45.53;;;4.40;99.90;;;;;;5051887;28;20255;-75
2022/12/31 00:32:41;;;;;;;;;;;4.40;99.90;;;;;;5051154;28;20228;-75
2022/12/31 00:35:07;;;;;;;153.32;48.65;;;4.40;99.90;;;;;;5050235;28;19909;-77
2022/12/31 00:37:34;;;;;;;187.40;53.47;;;4.40;99.90;;;;;;5052052;28;20029;-76
2022/12/31 00:39:59;;;;;;;145.75;46.00;;;4.50;99.90;;;;;;5052078;28;20075;-76
2022/12/31 00:42:25;;;;;;;;;;;4.50;99.90;;;;;;5053834;28;20033;-77
2022/12/31 00:44:51;;;;;;;188.20;45.33;;;4.50;99.90;;;;;;5056259;28;20377;-77
2022/12/31 00:47:16;;;;;;;;;;;4.50;99.90;;;;;;5056524;28;20036;-77
2022/12/31 00:49:42;;;;;;;208.90;41.00;;;4.50;99.90;;;;;;5053435;28;19944;-76
2022/12/31 00:52:07;;;;;;;;;;;4.60;99.90;;;;;;5052767;28;20400;-78
2022/12/31 00:54:33;;;;;;;143.90;41.30;;;4.50;99.90;;;;;;5051136;28;19916;-77
2022/12/31 00:56:59;;;;;;;;;;;4.50;99.90;;;;;;5052119;28;20029;-77
2022/12/31 00:59:24;;;;;;;223.38;37.40;;;4.50;99.90;;;;;;5053014;28;19908;-76
2022/12/31 01:01:50;;;;;;;;;;;4.60;99.90;;;;;;5051760;28;20029;-77
2022/12/31 01:04:19;;;;;;;158.25;36.15;;;4.60;99.90;;;;;;5051955;28;19916;-76
2022/12/31 01:06:45;;;;;;;261.65;39.50;;;4.60;99.90;;;;;;5053589;28;20417;-78
2022/12/31 01:09:12;;;;;;;199.45;39.58;;;4.60;99.90;;;;;;5053253;28;20029;-77
2022/12/31 01:11:38;;;;;;;256.95;46.72;;;4.60;99.90;;;;;;5051908;28;20060;-77
2022/12/31 01:14:05;;;;;;;;;;;4.50;99.90;;;;;;5052296;28;20668;-77
2022/12/31 01:16:32;;;;;;;;;;;4.50;99.90;;;;;;5053327;28;19905;-77
2022/12/31 01:19:00;;;;;;;151.98;40.67;;;4.50;99.90;;;;;;5052893;28;19919;-77
2022/12/31 01:21:27;;;;;;;182.75;44.10;;;4.50;99.90;;;;;;5052802;28;20071;-77
2022/12/31 01:23:52;;;;;;;262.38;45.78;;;4.50;99.90;;;;;;5051182;28;20440;-77
2022/12/31 01:26:18;;;;;;;;;;;4.50;99.90;;;;;;5053220;28;20102;-77
2022/12/31 01:28:45;;;;;;;133.35;38.05;;;4.50;99.90;;;;;;5052624;28;19905;-77
2022/12/31 01:31:15;;;;;;;273.10;48.47;;;4.50;99.90;;;;;;5053238;28;20052;-77
2022/12/31 01:33:42;;;;;;;223.35;46.65;;;4.50;99.90;;;;;;5051075;28;20432;-77
2022/12/31 01:36:11;;;;;;;341.48;50.42;;;4.50;99.90;;;;;;5051501;28;20059;-77
2022/12/31 01:38:37;;;;;;;237.82;45.03;;;4.50;99.90;;;;;;5052847;28;20039;-77
2022/12/31 01:41:03;;;;;;;;;;;4.60;99.90;;;;;;5052885;28;20147;-77
2022/12/31 01:44:21;;;;;;;154.23;44.53;;;4.60;99.90;;;;;;5052150;28;19952;-77
2022/12/31 01:46:52;;;;;;;176.45;43.30;;;4.60;99.90;;;;;;5034219;28;20498;-77
2022/12/31 01:49:36;;;;;;;121.07;39.80;;;4.50;99.90;;;;;;5051662;28;20037;-77
2022/12/31 01:52:22;;;;;;;192.05;48.28;;;4.50;99.90;;;;;;5052956;28;20021;-76
2022/12/31 01:55:07;;;;;;;140.23;41.55;;;4.50;99.90;;;;;;5051756;28;20037;-77
2022/12/31 01:57:34;;;;;;;134.45;38.83;;;4.60;99.90;;;;;;5051918;28;20029;-76
2022/12/31 02:00:01;;;;;;;143.15;37.03;;;4.60;99.90;;;;;;5052402;28;20067;-77
2022/12/31 02:02:26;;;;;;;108.05;33.70;;;4.60;99.90;;;;;;5052681;28;20032;-77
2022/12/31 02:04:53;;;;;;;;;;;4.70;99.90;;;;;;5051945;28;20025;-77
2022/12/31 02:07:19;;;;;;;91.60;30.45;;;4.70;99.90;;;;;;5051252;28;19916;-77
2022/12/31 02:09:45;;;;;;;;;;;4.70;99.90;;;;;;5051431;28;20131;-77
2022/12/31 02:12:10;;;;;;;94.55;34.08;;;4.60;99.90;;;;;;5051735;28;19923;-77
2022/12/31 02:14:47;;;;;;;;;;;4.60;99.90;;;;;;5051812;28;20025;-77
2022/12/31 02:17:33;;;;;;;96.65;33.50;;;4.60;99.90;;;;;;5052655;28;19909;-78
2022/12/31 02:20:10;;;;;;;120.60;37.75;;;4.60;99.90;;;;;;5051330;28;20032;-77
2022/12/31 02:22:54;;;;;;;;;;;4.60;99.90;;;;;;5051907;28;20037;-76
2022/12/31 02:25:44;;;;;;;138.05;39.58;;;4.60;99.90;;;;;;5051162;28;19991;-76
2022/12/31 02:28:15;;;;;;;125.28;41.55;;;4.70;99.90;;;;;;5052541;28;20032;-76
2022/12/31 02:30:46;;;;;;;135.38;43.58;;;4.70;99.90;;;;;;5050099;28;20100;-76
2022/12/31 02:33:42;;;;;;;119.95;36.30;;;4.70;99.90;;;;;;5051040;28;20484;-77
2022/12/31 02:36:14;;;;;;;92.70;32.55;;;4.70;99.90;;;;;;5049272;28;20036;-77
2022/12/31 02:38:43;;;;;;;94.53;33.80;;;4.70;99.90;;;;;;5052875;28;20063;-77
2022/12/31 02:41:48;;;;;;;79.68;30.50;;;4.70;99.90;;;;;;5051710;28;20036;-77
2022/12/31 02:43:59;;;;;;;103.50;36.88;;;4.70;99.90;;;;;;5052904;28;20571;-77
2022/12/31 02:46:31;;;;;;;;;;;4.70;99.90;;;;;;5053542;28;20037;-77
2022/12/31 02:49:07;;;;;;;104.50;35.95;;;4.70;99.90;;;;;;5051840;28;19909;-77
2022/12/31 02:51:59;;;;;;;88.97;29.85;;;4.70;99.90;;;;;;5051777;28;20568;-77
2022/12/31 02:54:40;;;;;;;79.53;27.25;;;4.70;99.90;;;;;;5051178;28;20029;-77
2022/12/31 02:57:17;;;;;;;63.58;25.17;;;4.80;99.90;;;;;;5053080;28;20037;-77
2022/12/31 03:03:11;;;;;;;72.82;30.33;;;4.80;99.90;;;;;;5030586;28;20100;-77
2022/12/31 03:05:38;;;;;;;;;;;4.80;99.90;;;;;;5015140;28;20468;-77
2022/12/31 03:08:04;;;;;;;75.00;29.65;;;4.80;99.90;;;;;;5042038;28;19912;-77
2022/12/31 03:10:29;;;;;;;;;;;4.70;99.90;;;;;;5054879;28;20029;-77
2022/12/31 03:12:55;;;;;;;69.13;26.17;;;4.70;99.90;;;;;;5050947;28;20395;-77
2022/12/31 03:15:22;;;;;;;;;;;4.80;99.90;;;;;;5051112;28;20409;-77
2022/12/31 03:17:49;;;;;;;55.40;24.77;;;4.80;99.90;;;;;;5050114;28;19955;-77
2022/12/31 03:22:59;;;;;;;56.33;27.25;;;4.80;99.90;;;;;;5050598;28;20048;-78
2022/12/31 03:28:21;;;;;;;49.80;22.27;;;4.80;99.90;;;;;;5049311;28;19961;-77
2022/12/31 03:30:50;;;;;;;50.78;23.85;;;4.90;99.90;;;;;;5050312;28;20032;-77
2022/12/31 03:33:16;;;;;;;53.38;26.02;;;4.80;99.90;;;;;;5050221;28;20679;-78
2022/12/31 03:35:45;;;;;;;48.97;26.02;;;4.80;99.90;;;;;;5050007;28;20060;-77
2022/12/31 03:38:10;;;;;;;51.92;24.75;;;4.80;99.90;;;;;;5050458;28;20079;-77
2022/12/31 03:40:40;;;;;;;;;;;4.80;99.90;;;;;;5051737;28;20028;-77
2022/12/31 03:43:06;;;;;;;55.13;27.23;;;4.80;99.90;;;;;;5053992;28;19905;-77
2022/12/31 03:45:33;;;;;;;;;;;4.80;99.90;;;;;;5054692;28;20026;-77
2022/12/31 03:47:59;;;;;;;46.75;24.42;;;4.80;99.90;;;;;;5053713;28;19909;-77
2022/12/31 03:50:25;;;;;;;36.50;20.83;;;4.80;99.90;;;;;;5053466;28;20039;-76
2022/12/31 03:52:50;;;;;;;;;;;4.90;99.90;;;;;;5054970;28;20096;-78
2022/12/31 03:55:16;;;;;;;33.47;19.23;;;4.90;99.90;;;;;;5055006;28;19913;-77
2022/12/31 03:57:42;;;;;;;;;;;4.90;99.90;;;;;;5053689;28;20059;-77
2022/12/31 04:00:09;;;;;;;;;;;4.90;99.90;;;;;;5055450;28;19912;-76
2022/12/31 04:02:35;;;;;;;;;;;4.90;99.90;;;;;;5053225;28;20384;-77
2022/12/31 04:05:00;;;;;;;;;;;4.80;99.90;;;;;;5053752;28;19908;-77
2022/12/31 04:07:26;;;;;;;;;;;4.80;99.90;;;;;;5055223;28;20694;-77
2022/12/31 04:09:51;;;;;;;;;;;4.80;99.90;;;;;;5053659;28;19908;-77
2022/12/31 04:12:17;;;;;;;;;;;4.80;99.90;;;;;;5053514;28;20010;-77
2022/12/31 04:14:42;;;;;;;;;;;4.80;99.90;;;;;;5053931;28;19944;-77
2022/12/31 04:17:16;;;;;;;;;;;4.80;99.90;;;;;;5053704;28;19948;-76
2022/12/31 04:19:41;;;;;;;;;;;4.80;99.90;;;;;;5054907;28;19911;-76
2022/12/31 04:22:07;;;;;;;;;;;4.80;99.90;;;;;;5054287;28;19987;-77
2022/12/31 04:24:32;;;;;;;;;;;4.80;99.90;;;;;;5055104;28;19911;-77
2022/12/31 04:26:58;;;;;;;;;;;4.90;99.90;;;;;;5054934;28;19924;-77
2022/12/31 04:29:24;;;;;;;;;;;4.90;99.90;;;;;;5053612;28;19911;-77
2022/12/31 04:31:50;;;;;;;;;;;5.00;99.90;;;;;;5054592;28;20330;-77
2022/12/31 04:34:15;;;;;;;;;;;5.00;99.90;;;;;;5054736;28;19911;-77
2022/12/31 04:36:41;;;;;;;;;;;5.10;99.90;;;;;;5055204;28;20300;-77
2022/12/31 04:39:06;;;;;;;;;;;5.20;99.90;;;;;;5054905;28;20333;-77
2022/12/31 04:41:32;;;;;;;;;;;5.20;99.90;;;;;;5053652;28;19916;-77
2022/12/31 04:43:58;;;;;;;;;;;5.20;99.90;;;;;;5054242;28;19959;-77
2022/12/31 04:46:28;;;;;;;;;;;5.20;99.90;;;;;;5053397;28;19923;-76
2022/12/31 04:48:53;;;;;;;;;;;5.20;99.90;;;;;;5054896;28;19915;-76
2022/12/31 04:51:19;;;;;;;;;;;5.20;99.90;;;;;;5053255;28;19909;-77
2022/12/31 04:53:45;;;;;;;;;;;5.30;99.90;;;;;;5053728;28;19905;-77
2022/12/31 04:56:10;;;;;;;;;;;5.30;99.90;;;;;;5054482;28;19924;-77
2022/12/31 04:58:36;;;;;;;;;;;5.30;99.90;;;;;;5053496;28;19911;-77
2022/12/31 05:01:02;;;;;;;;;;;5.30;99.90;;;;;;5054295;28;20337;-76
2022/12/31 05:03:27;;;;;;;;;;;5.30;99.90;;;;;;5053608;28;20402;-77
2022/12/31 05:05:53;;;;;;;;;;;5.30;99.90;;;;;;5054267;28;19913;-77
2022/12/31 05:08:19;;;;;;;;;;;5.30;99.90;;;;;;5054256;28;19977;-77
2022/12/31 05:10:46;;;;;;;;;;;5.30;99.90;;;;;;5052414;28;19943;-76
2022/12/31 05:13:12;;;;;;;;;;;5.30;99.90;;;;;;5054256;28;19904;-76
2022/12/31 05:15:38;;;;;;;;;;;5.30;99.90;;;;;;5052075;28;19915;-77
2022/12/31 05:18:04;;;;;;;;;;;5.30;99.90;;;;;;5047710;28;20282;-76
2022/12/31 05:20:29;;;;;;;;;;;5.40;99.90;;;;;;5035602;28;20012;-77
2022/12/31 05:22:55;;;;;;;;;;;5.30;99.90;;;;;;5045481;28;19931;-76
2022/12/31 05:25:20;;;;;;;;;;;5.30;99.90;;;;;;5041365;28;19924;-76
2022/12/31 05:27:46;;;;;;;;;;;5.40;99.90;;;;;;5041835;28;19924;-76
2022/12/31 05:30:12;;;;;;;;;;;5.40;99.90;;;;;;5042054;28;19954;-76
2022/12/31 05:32:38;;;;;;;;;;;5.40;99.90;;;;;;5043364;28;19954;-77
2022/12/31 05:35:03;;;;;;;;;;;5.40;99.90;;;;;;5044667;28;20271;-77
2022/12/31 05:37:29;;;;;;;;;;;5.40;99.90;;;;;;5042068;28;19958;-77
2022/12/31 05:39:55;;;;;;;;;;;5.40;99.90;;;;;;5037283;28;19917;-76
2022/12/31 05:42:21;;;;;;;;;;;5.40;99.90;;;;;;5039906;28;19908;-75
2022/12/31 05:44:46;;;;;;;;;;;5.30;99.90;;;;;;5029270;28;19905;-75
2022/12/31 05:47:12;;;;;;;;;;;5.30;99.90;;;;;;5030622;28;19916;-75
2022/12/31 05:49:37;;;;;;;;;;;5.40;99.90;;;;;;5031116;28;19909;-76
2022/12/31 05:52:03;;;;;;;;;;;5.40;99.90;;;;;;5029199;28;19916;-76
2022/12/31 05:54:28;;;;;;;;;;;5.40;99.90;;;;;;5029257;28;19909;-77
2022/12/31 05:56:54;;;;;;;;;;;5.40;99.90;;;;;;5030282;28;19909;-75
2022/12/31 05:59:20;;;;;;;;;;;5.40;99.90;;;;;;5030294;28;19908;-76
2022/12/31 06:01:45;;;;;;;;;;;5.40;99.90;;;;;;5029185;28;19959;-76
2022/12/31 06:04:11;;;;;;;;;;;5.40;99.90;;;;;;5032938;28;19931;-76
2022/12/31 06:06:36;;;;;;;;;;;5.40;99.90;;;;;;5038321;28;20389;-75
2022/12/31 06:09:02;;;;;;;;;;;5.40;99.90;;;;;;5043243;28;20436;-77
2022/12/31 06:11:27;;;;;;;;;;;5.40;99.90;;;;;;5042593;28;20301;-77
2022/12/31 06:13:53;;;;;;;;;;;5.30;99.90;;;;;;5037471;28;19957;-77
2022/12/31 06:16:19;;;;;;;;;;;5.30;99.90;;;;;;5039653;28;19971;-77
2022/12/31 06:18:49;;;;;;;;;;;5.20;99.90;;;;;;5038776;28;19908;-77
2022/12/31 06:21:18;;;;;;;;;;;5.20;99.90;;;;;;5040682;28;20362;-76
2022/12/31 06:23:44;;;;;;;;;;;5.20;99.90;;;;;;5047893;28;19949;-77
2022/12/31 06:26:10;;;;;;;;;;;5.20;99.90;;;;;;5051564;28;19960;-76
2022/12/31 06:28:35;;;;;;;;;;;5.20;99.90;;;;;;5048453;28;20365;-78
2022/12/31 06:31:11;;;;;;;;;;;5.10;99.90;;;;;;5030817;28;20358;-76
2022/12/31 06:33:37;;;;;;;;;;;5.20;99.90;;;;;;5045233;28;19960;-77
2022/12/31 06:36:04;;;;;;;;;;;5.20;99.90;;;;;;5030464;28;19956;-75
2022/12/31 06:38:30;;;;;;;;;;;5.10;99.90;;;;;;5029354;28;20297;-76
2022/12/31 06:40:56;;;;;;;;;;;5.10;99.90;;;;;;5031300;28;19909;-77
2022/12/31 06:43:21;;;;;;;;;;;5.10;99.90;;;;;;5029937;28;19950;-76
2022/12/31 06:45:47;;;;;;;;;;;5.20;99.90;;;;;;5030159;28;20297;-77
2022/12/31 06:48:13;;;;;;;;;;;5.10;99.90;;;;;;5029672;28;19913;-76
2022/12/31 06:50:39;;;;;;;;;;;5.10;99.90;;;;;;5030783;28;19913;-76
2022/12/31 06:53:04;;;;;;;;;;;5.20;99.90;;;;;;5030589;28;19909;-76
2022/12/31 06:55:30;;;;;;;;;;;5.20;99.90;;;;;;5029801;28;19916;-76
2022/12/31 06:57:56;;;;;;;;;;;5.20;99.90;;;;;;5029120;28;19995;-77
2022/12/31 07:00:22;;;;;;;;;;;5.20;99.90;;;;;;5030071;28;19959;-76
2022/12/31 07:02:53;;;;;;;;;;;5.20;99.90;;;;;;5031310;28;20523;-77
2022/12/31 07:05:31;;;;;;;;;;;5.20;99.90;;;;;;5029652;28;19913;-77
2022/12/31 07:08:02;;;;;;;;;;;5.20;99.90;;;;;;5029971;28;20480;-77
2022/12/31 07:10:34;;;;;;;;;;;5.30;99.90;;;;;;5030217;28;19909;-76
2022/12/31 07:13:02;;;;;;;;;;;5.30;99.90;;;;;;5031200;28;19905;-77
2022/12/31 07:15:47;;;;;;;;;;;5.30;99.90;;;;;;5030309;28;19909;-76
2022/12/31 07:18:12;;;;;;;;;;;5.30;99.90;;;;;;5029725;28;19909;-75
2022/12/31 07:20:38;;;;;;;;;;;5.30;99.90;;;;;;5029136;28;19962;-76
2022/12/31 07:23:03;;;;;;;;;;;5.30;99.90;;;;;;5029786;28;20314;-76
2022/12/31 07:25:29;;;;;;;;;;;5.30;99.90;;;;;;5029827;28;20380;-76
2022/12/31 07:28:08;;;;;;;;;;;5.40;99.90;;;;;;5029221;28;19932;-76
2022/12/31 07:30:40;;;;;;;;;;;5.40;99.90;;;;;;5029361;28;20171;-76
2022/12/31 07:33:05;;;;;;;;;;;5.40;99.90;;;;;;5029918;28;19916;-75
2022/12/31 07:35:40;;;;;;;;;;;5.40;99.90;;;;;;5029656;28;19912;-76
2022/12/31 07:38:06;;;;;;;;;;;5.50;99.90;;;;;;5029894;28;19908;-76
2022/12/31 07:40:47;;;;;;;;;;;5.50;99.90;;;;;;5031426;28;19999;-75
2022/12/31 07:43:25;;;;;;;;;;;5.60;99.90;;;;;;5031482;28;19912;-76
2022/12/31 07:46:02;;;;;;;;;;;5.70;99.90;;;;;;5030051;28;20685;-76
2022/12/31 07:48:28;;;;;;;;;;;5.70;99.90;;;;;;5031279;28;19909;-76
2022/12/31 07:50:54;;;;;;;;;;;5.80;99.90;;;;;;5029991;28;19916;-76
2022/12/31 07:53:21;;;;;;;;;;;5.80;99.90;;;;;;5030454;28;19932;-76
2022/12/31 07:55:49;;;;;;;;;;;5.80;99.90;;;;;;5032909;28;19905;-76
2022/12/31 07:58:20;;;;;;;;;;;5.90;99.90;;;;;;5030894;28;20366;-76
2022/12/31 08:00:46;;;;;;;;;;;6.10;99.90;;;;;;5028266;28;19905;-75
2022/12/31 08:03:26;;;;;;;;;;;6.20;99.90;;;;;;5028028;28;19984;-76
2022/12/31 08:06:11;;;;;;;;;;;6.30;99.90;;;;;;5027877;28;19909;-76
2022/12/31 08:08:46;;;;;;;;;;;6.40;99.90;;;;;;5028476;28;19913;-76
2022/12/31 08:11:20;;;;;;;;;;;6.40;99.90;;;;;;5028791;28;19905;-75
2022/12/31 08:13:46;;;;;;;;;;;6.50;99.90;;;;;;5028331;28;19905;-76
2022/12/31 08:16:12;;;;;;;;;;;6.50;99.90;;;;;;5029774;28;20001;-75
2022/12/31 08:18:38;;;;;;;;;;;6.50;99.90;;;;;;5029665;28;19909;-76
2022/12/31 08:21:19;;;;;;;;;;;6.50;99.90;;;;;;5029293;28;19912;-76
2022/12/31 08:24:03;;;;;;;;;;;6.50;99.90;;;;;;5029058;28;19905;-75
2022/12/31 08:26:32;;;;;;;;;;;6.60;99.90;;;;;;5027720;28;19921;-76
2022/12/31 08:29:10;;;;;;;;;;;6.60;99.90;;;;;;5029009;28;19913;-76
2022/12/31 08:31:46;;;;;;;;;;;6.60;99.90;;;;;;5031649;28;19909;-75
2022/12/31 08:34:17;;;;;;;;;;;6.90;99.90;;;;;;5032205;28;19948;-76
2022/12/31 08:36:55;;;;;;;;;;;7.20;99.90;;;;;;5033134;28;19951;-77
2022/12/31 08:39:33;;;;;;;;;;;7.30;99.90;;;;;;5034126;28;19909;-77
2022/12/31 08:42:00;;;;;;;;;;;7.40;99.90;;;;;;5032238;28;19917;-76
2022/12/31 08:44:26;;;;;;;;;;;7.50;99.90;;;;;;5033547;28;19906;-77
2022/12/31 08:46:58;;;;;;;;;;;7.60;99.90;;;;;;5033665;28;19962;-77
2022/12/31 08:49:26;;;;;;;;;;;7.50;99.90;;;;;;5032318;28;19909;-77
2022/12/31 08:51:51;;;;;;;;;;;7.40;99.90;;;;;;5031462;28;19909;-77
2022/12/31 08:54:17;;;;;;;;;;;7.40;99.90;;;;;;5032570;28;19912;-77
2022/12/31 08:56:48;;;;;;;;;;;7.30;99.90;;;;;;5031995;28;19916;-76
2022/12/31 08:59:22;;;;;;;;;;;7.20;99.90;;;;;;5033369;28;19909;-76
2022/12/31 09:01:59;;;;;;;;;;;7.10;99.90;;;;;;5033438;28;19909;-76
2022/12/31 09:04:28;;;;;;;;;;;7.10;99.90;;;;;;5033937;28;19909;-77
2022/12/31 09:06:58;;;;;;;;;;;7.10;99.90;;;;;;5032084;28;20382;-76
2022/12/31 09:09:39;;;;;;;;;;;7.20;99.90;;;;;;5031615;28;20727;-76
2022/12/31 09:12:09;;;;;;;;;;;7.20;99.90;;;;;;5031957;28;19931;-76
2022/12/31 09:14:40;;;;;;;;;;;7.20;99.90;;;;;;5033509;28;19909;-77
2022/12/31 09:17:06;;;;;;;;;;;7.20;99.90;;;;;;5031897;28;19905;-78
2022/12/31 09:19:31;;;;;;;;;;;7.30;99.90;;;;;;5032117;28;20011;-77
2022/12/31 09:21:57;;;;;;;;;;;7.30;99.90;;;;;;5031666;28;19945;-76
2022/12/31 09:24:23;;;;;;;;;;;7.30;99.90;;;;;;5034168;28;19940;-77
2022/12/31 09:27:04;;;;;;;;;;;7.30;99.90;;;;;;5031137;28;20383;-77
2022/12/31 09:29:48;;;;;;;;;;;7.30;99.90;;;;;;5032386;28;19909;-77
2022/12/31 09:32:16;;;;;;;;;;;7.30;99.90;;;;;;5033477;28;20383;-77
2022/12/31 09:34:48;;;;;;;;;;;7.30;99.90;;;;;;5031686;28;20370;-77
2022/12/31 09:37:19;;;;;;;;;;;7.30;99.90;;;;;;5032592;28;20235;-77
2022/12/31 09:39:46;;;;;;;;;;;7.40;99.90;;;;;;5033734;28;20366;-77
2022/12/31 09:42:30;;;;;;;;;;;7.50;99.90;;;;;;5032070;28;19909;-74
2022/12/31 09:45:25;;;;;;;;;;;7.60;99.90;;;;;;5031294;28;19948;-76
2022/12/31 09:48:26;;;;;;;;;;;7.70;99.90;;;;;;5027877;28;19913;-77
2022/12/31 09:51:11;;;;;;;;;;;7.70;99.90;;;;;;5031048;28;19905;-77
2022/12/31 09:53:47;;;;;;;;;;;7.80;99.90;;;;;;5031532;28;20046;-77
2022/12/31 09:56:24;;;;;;;;;;;7.70;99.90;;;;;;5031398;28;20664;-77
2022/12/31 09:58:55;;;;;;;;;;;7.70;99.90;;;;;;5033102;28;19905;-77
2022/12/31 10:01:27;;;;;;;;;;;7.60;99.90;;;;;;5031666;28;19955;-77
2022/12/31 10:04:18;;;;;;;;;;;7.60;99.90;;;;;;5032253;28;19909;-76
2022/12/31 10:07:02;;;;;;;;;;;7.50;99.90;;;;;;5033670;28;19917;-76
2022/12/31 10:09:43;;;;;;;;;;;7.50;99.90;;;;;;5032263;28;19959;-77
2022/12/31 10:12:27;;;;;;;;;;;7.50;99.90;;;;;;5032084;28;20491;-77
2022/12/31 10:14:59;;;;;;;;;;;7.50;99.90;;;;;;5032211;28;19911;-77
2022/12/31 10:17:42;;;;;;;;;;;7.50;99.90;;;;;;5033422;28;19909;-76
2022/12/31 10:20:23;;;;;;;;;;;7.50;99.90;;;;;;5032905;28;19955;-77
2022/12/31 10:23:02;;;;;;;;;;;7.50;99.90;;;;;;5030821;28;19959;-77
2022/12/31 10:25:46;;;;;;;;;;;7.40;99.90;;;;;;5031159;28;19936;-77
2022/12/31 10:28:17;;;;;;;;;;;7.50;99.90;;;;;;5031269;28;20439;-76
2022/12/31 10:30:48;;;;;;;;;;;7.60;99.90;;;;;;5030002;28;20298;-78
2022/12/31 10:33:32;;;;;;;;;;;7.50;99.90;;;;;;5029299;28;19905;-77
2022/12/31 10:35:58;;;;;;;;;;;7.60;99.90;;;;;;5030611;28;19909;-77
2022/12/31 10:38:42;;;;;;;;;;;7.60;99.90;;;;;;5029185;28;20012;-77
2022/12/31 10:41:26;;;;;;;;;;;7.70;99.90;;;;;;5030787;28;20316;-77
2022/12/31 10:44:04;;;;;;;;;;;7.70;99.90;;;;;;5030404;28;19905;-77
2022/12/31 10:46:30;;;;;;;;;;;7.80;99.90;;;;;;5030369;28;19913;-77
2022/12/31 10:49:20;;;;;;;;;;;7.80;99.90;;;;;;5030569;28;20431;-77
2022/12/31 10:52:05;;;;;;;;;;;7.90;99.90;;;;;;5028499;28;19962;-77
2022/12/31 10:54:48;;;;;;;;;;;8.00;99.90;;;;;;5030002;28;20719;-77
2022/12/31 10:57:20;;;;;;;;;;;8.10;99.90;;;;;;5029111;28;19912;-77
2022/12/31 10:59:45;;;;;;;;;;;8.10;99.90;;;;;;5030036;28;19909;-77
2022/12/31 11:02:14;;;;;;;;;;;8.10;99.90;;;;;;5030241;28;20318;-78
2022/12/31 11:04:43;;;;;;;;;;;8.20;99.90;;;;;;5028889;28;20441;-76
2022/12/31 11:07:11;;;;;;;;;;;8.10;99.90;;;;;;5030186;28;20003;-76
2022/12/31 11:09:39;;;;;;;;;;;8.00;99.90;;;;;;5028798;28;19909;-78
2022/12/31 11:12:21;;;;;;;;;;;8.00;99.90;;;;;;5029197;28;19909;-76
2022/12/31 11:14:49;;;;;;;;;;;8.00;99.90;;;;;;5029143;28;19987;-77
2022/12/31 11:17:21;;;;;;;;;;;7.90;99.90;;;;;;5030202;28;19912;-76
2022/12/31 11:20:13;;;;;;;;;;;7.90;99.90;;;;;;5029104;28;19909;-77
2022/12/31 11:22:39;;;;;;;;;;;7.90;99.90;;;;;;5028630;28;19992;-76
2022/12/31 11:25:11;;;;;;;;;;;7.80;99.90;;;;;;5029275;28;20348;-76
2022/12/31 11:27:36;;;;;;;;;;;7.70;99.90;;;;;;5029414;28;19963;-77
2022/12/31 11:30:20;;;;;;;;;;;7.70;99.90;;;;;;5029037;28;19948;-77
2022/12/31 11:32:49;;;;;;;;;;;7.70;99.90;;;;;;5029424;28;19909;-77
2022/12/31 11:35:15;;;;;;;;;;;7.70;99.90;;;;;;5030673;28;19905;-77
2022/12/31 11:37:44;;;;;;;;;;;7.60;99.90;;;;;;5029416;28;19935;-77
2022/12/31 11:40:15;;;;;;;;;;;7.60;99.90;;;;;;5029325;28;19905;-77
2022/12/31 11:42:47;;;;;;;;;;;7.60;99.90;;;;;;5031233;28;19909;-77
2022/12/31 11:45:21;;;;;;;;;;;7.60;99.90;;;;;;5030941;28;19927;-77
2022/12/31 11:47:50;;;;;;;;;;;7.60;99.90;;;;;;5029700;28;19960;-77
2022/12/31 11:50:31;;;;;;;;;;;7.50;99.90;;;;;;5029615;28;19976;-77
2022/12/31 11:53:15;;;;;;;;;;;7.50;99.90;;;;;;5028709;28;19915;-77
2022/12/31 11:56:04;;;;;;;;;;;7.60;99.90;;;;;;5029915;28;19917;-77
2022/12/31 11:58:30;;;;;;;;;;;7.70;99.90;;;;;;5028082;28;20043;-77
2022/12/31 12:01:15;;;;;;;;;;;7.80;99.90;;;;;;5029075;28;20012;-77
2022/12/31 12:03:43;;;;;;;;;;;7.80;99.90;;;;;;5031169;28;19912;-77
2022/12/31 12:06:13;;;;;;;;;;;7.90;99.90;;;;;;5032403;28;19966;-77
2022/12/31 12:08:40;;;;;;;;;;;7.90;99.90;;;;;;5033296;28;19921;-77
2022/12/31 12:11:07;;;;;;;;;;;7.90;99.90;;;;;;5033018;28;19909;-77
2022/12/31 12:13:33;;;;;;;;;;;7.90;99.90;;;;;;5034573;28;19948;-77
2022/12/31 12:16:00;;;;;;;;;;;7.90;99.90;;;;;;5033205;28;19976;-77
2022/12/31 12:18:52;;;;;;;;;;;7.90;99.90;;;;;;5033801;28;19905;-78
2022/12/31 12:21:22;;;;;;;;;;;7.80;99.90;;;;;;5018072;28;20502;-76
2022/12/31 12:23:55;;;;;;;;;;;7.90;99.90;;;;;;5033296;28;19909;-77
2022/12/31 12:26:35;;;;;;;;;;;7.90;99.90;;;;;;5033385;28;19921;-77
2022/12/31 12:29:11;;;;;;;;;;;7.90;99.90;;;;;;5033910;28;19913;-77
2022/12/31 12:31:37;;;;;;;;;;;7.90;99.90;;;;;;5034958;28;19955;-77
2022/12/31 12:34:03;;;;;;;;;;;7.90;99.90;;;;;;5033030;28;19948;-77
2022/12/31 12:36:28;;;;;;;;;;;7.90;99.90;;;;;;5034561;28;19944;-77
2022/12/31 12:39:02;;;;;;;;;;;7.90;99.90;;;;;;5035162;28;20292;-77
2022/12/31 12:41:28;;;;;;;;;;;7.90;99.90;;;;;;5035230;28;19992;-77
2022/12/31 12:44:07;;;;;;;;;;;7.90;99.90;;;;;;5033365;28;20357;-77
2022/12/31 12:46:53;;;;;;;;;;;7.80;99.90;;;;;;5033029;28;19923;-77
2022/12/31 12:49:21;;;;;;;;;;;7.90;99.90;;;;;;5033241;28;19913;-77
2022/12/31 12:51:52;;;;;;;;;;;7.90;99.90;;;;;;5032555;28;20271;-77
2022/12/31 12:54:24;;;;;;;;;;;7.90;99.90;;;;;;5031757;28;19936;-77
2022/12/31 12:57:12;;;;;;;;;;;7.90;99.90;;;;;;5033138;28;19905;-77
2022/12/31 12:59:57;;;;;;;;;;;7.90;99.90;;;;;;5025837;28;19916;-77
2022/12/31 13:02:37;;;;;;;;;;;7.90;99.90;;;;;;5033227;28;19909;-77
2022/12/31 13:05:05;;;;;;;;;;;7.90;99.90;;;;;;5033250;28;19912;-77
2022/12/31 13:08:06;;;;;;;;;;;7.90;99.90;;;;;;5033105;28;20386;-77
2022/12/31 13:10:41;;;;;;;;;;;7.80;99.90;;;;;;5010121;28;20619;-78
2022/12/31 13:13:07;;;;;;;;;;;7.80;99.90;;;;;;5042236;28;19963;-76
2022/12/31 13:15:32;;;;;;;;;;;7.90;99.90;;;;;;5031210;28;20333;-78
2022/12/31 13:18:03;;;;;;;;;;;7.90;99.90;;;;;;5031457;28;19916;-77
2022/12/31 13:20:29;;;;;;;;;;;7.90;99.90;;;;;;5032905;28;20453;-77
2022/12/31 13:22:59;;;;;;;;;;;7.90;99.90;;;;;;5033217;28;19996;-77
2022/12/31 13:25:47;;;;;;;;;;;7.90;99.90;;;;;;5031301;28;19971;-77
2022/12/31 13:28:15;;;;;;;;;;;7.90;99.90;;;;;;5022845;28;19917;-76
2022/12/31 13:30:46;;;;;;;;;;;7.90;99.90;;;;;;5031422;28;19909;-78
2022/12/31 13:33:17;;;;;;;;;;;7.90;99.90;;;;;;5031512;28;20442;-77
2022/12/31 13:35:45;;;;;;;;;;;7.80;99.90;;;;;;5032417;28;20390;-76
2022/12/31 13:38:11;;;;;;;;;;;7.80;99.90;;;;;;5031230;28;19955;-77
2022/12/31 13:40:45;;;;;;;;;;;7.80;99.90;;;;;;5031672;28;20181;-77
2022/12/31 13:43:17;;;;;;;;;;;7.70;99.90;;;;;;5031527;28;19908;-77
2022/12/31 13:45:44;;;;;;;;;;;7.80;99.90;;;;;;5031186;28;19915;-77
2022/12/31 13:48:17;;;;;;;;;;;7.70;99.90;;;;;;5031576;28;19909;-77
2022/12/31 13:50:50;;;;;;;;;;;7.70;99.90;;;;;;5031974;28;19940;-77
2022/12/31 13:53:18;;;;;;;;;;;7.70;99.90;;;;;;5033414;28;19905;-77
2022/12/31 13:55:56;;;;;;;;;;;7.60;99.90;;;;;;5032104;28;19905;-78
2022/12/31 13:58:30;;;;;;;;;;;7.60;99.90;;;;;;5031402;28;19905;-77
2022/12/31 14:01:10;;;;;;;;;;;7.60;99.90;;;;;;5032852;28;19996;-77
2022/12/31 14:03:36;;;;;;;;;;;7.60;99.90;;;;;;5031480;28;19959;-77
2022/12/31 14:06:22;;;;;;;;;;;7.50;99.90;;;;;;5032728;28;19913;-77
2022/12/31 14:08:48;;;;;;;;;;;7.50;99.90;;;;;;5032091;28;19909;-77
2022/12/31 14:11:16;;;;;;;;;;;7.50;99.90;;;;;;5033192;28;19990;-77
2022/12/31 14:13:49;;;;;;;;;;;7.40;99.90;;;;;;5033517;28;19905;-76
2022/12/31 14:16:33;;;;;;;;;;;7.40;99.90;;;;;;5032109;28;19905;-77
2022/12/31 14:19:05;;;;;;;;;;;7.40;99.90;;;;;;5031650;28;20453;-77
2022/12/31 14:21:46;;;;;;;;;;;7.30;99.90;;;;;;5032677;28;19996;-78
2022/12/31 14:24:14;;;;;;;;;;;7.20;99.90;;;;;;5031967;28;20332;-77
2022/12/31 14:26:45;;;;;;;;;;;7.20;99.90;;;;;;5032609;28;19971;-77
2022/12/31 14:29:11;;;;;;;;;;;7.10;99.90;;;;;;5032063;28;19951;-77
2022/12/31 14:31:48;;;;;;;;;;;7.10;99.90;;;;;;5033310;28;19948;-77
2022/12/31 14:34:50;;;;;;;;;;;7.10;99.90;;;;;;5031761;28;20008;-77